createdAt,value
2018-05-19T00:00:25.789Z,11.90
2018-05-19T00:02:53.257Z,11.90
2018-05-19T00:05:21.511Z,11.80
2018-05-19T00:07:48.993Z,11.80
2018-05-19T00:10:17.240Z,11.80
2018-05-19T00:12:44.713Z,11.80
2018-05-19T00:15:12.198Z,11.70
2018-05-19T00:17:40.451Z,11.70
2018-05-19T00:20:07.932Z,11.60
2018-05-19T00:22:41.164Z,11.60
2018-05-19T00:25:08.660Z,11.60
2018-05-19T00:27:36.132Z,11.60
2018-05-19T00:30:04.372Z,11.60
2018-05-19T00:32:31.851Z,11.50
2018-05-19T00:34:59.328Z,11.50
2018-05-19T00:37:27.578Z,11.40
2018-05-19T00:39:55.048Z,11.40
2018-05-19T00:42:22.526Z,11.50
2018-05-19T00:44:50.005Z,11.40
2018-05-19T00:47:17.489Z,11.40
2018-05-19T00:49:44.960Z,11.40
2018-05-19T00:52:12.439Z,11.40
2018-05-19T00:54:51.768Z,11.40
2018-05-19T00:57:19.255Z,11.30
2018-05-19T00:59:47.488Z,11.20
2018-05-19T01:02:14.973Z,11.20
2018-05-19T01:04:43.228Z,11.10
2018-05-19T01:07:10.738Z,11.10
2018-05-19T01:09:38.217Z,11.00
2018-05-19T01:12:05.694Z,11.00
2018-05-19T01:14:33.172Z,11.00
2018-05-19T01:17:00.660Z,10.90
2018-05-19T01:19:28.138Z,10.90
2018-05-19T01:21:55.612Z,10.90
2018-05-19T01:24:23.100Z,10.90
2018-05-19T01:26:50.584Z,10.90
2018-05-19T01:29:18.840Z,10.80
2018-05-19T01:31:46.328Z,10.80
2018-05-19T01:34:13.807Z,10.80
2018-05-19T01:36:41.275Z,10.70
2018-05-19T01:39:08.763Z,10.70
2018-05-19T01:41:36.245Z,10.70
2018-05-19T01:44:04.503Z,10.60
2018-05-19T01:46:31.979Z,10.60
2018-05-19T01:49:00.223Z,10.60
2018-05-19T01:51:27.713Z,10.60
2018-05-19T01:53:55.950Z,10.50
2018-05-19T01:56:23.436Z,10.50
2018-05-19T01:58:50.899Z,10.50
2018-05-19T02:01:19.169Z,10.50
2018-05-19T02:03:46.644Z,10.50
2018-05-19T02:06:14.903Z,10.40
2018-05-19T02:08:43.883Z,10.40
2018-05-19T02:11:11.370Z,10.40
2018-05-19T02:13:39.599Z,10.30
2018-05-19T02:16:07.094Z,10.20
2018-05-19T02:18:35.336Z,10.20
2018-05-19T02:21:02.836Z,10.20
2018-05-19T02:23:31.067Z,10.20
2018-05-19T02:25:58.559Z,10.10
2018-05-19T02:28:26.045Z,10.10
2018-05-19T02:30:54.301Z,10.00
2018-05-19T02:33:22.540Z,10.00
2018-05-19T02:35:50.041Z,10.00
2018-05-19T02:38:18.285Z,10.00
2018-05-19T02:40:45.776Z,10.00
2018-05-19T02:43:14.007Z,9.90
2018-05-19T02:45:41.473Z,9.90
2018-05-19T02:48:08.960Z,9.90
2018-05-19T02:50:37.199Z,9.90
2018-05-19T02:53:04.680Z,9.90
2018-05-19T02:55:32.152Z,9.90
2018-05-19T02:58:00.408Z,9.90
2018-05-19T03:00:27.884Z,9.80
2018-05-19T03:02:56.139Z,9.70
2018-05-19T03:05:23.611Z,9.70
2018-05-19T03:07:51.089Z,9.80
2018-05-19T03:10:19.328Z,9.80
2018-05-19T03:12:46.817Z,9.80
2018-05-19T03:15:15.047Z,9.70
2018-05-19T03:17:42.532Z,9.70
2018-05-19T03:20:09.997Z,9.80
2018-05-19T03:22:37.476Z,9.80
2018-05-19T03:25:05.731Z,9.70
2018-05-19T03:27:33.208Z,9.70
2018-05-19T03:30:01.444Z,9.70
2018-05-19T03:32:28.949Z,9.70
2018-05-19T03:34:57.200Z,9.70
2018-05-19T03:37:24.671Z,9.60
2018-05-19T03:39:52.915Z,9.60
2018-05-19T03:42:20.392Z,9.60
2018-05-19T03:44:48.664Z,9.60
2018-05-19T03:47:17.635Z,9.60
2018-05-19T03:49:45.132Z,9.60
2018-05-19T03:52:13.364Z,9.60
2018-05-19T03:54:40.855Z,9.60
2018-05-19T03:57:20.320Z,9.60
2018-05-19T04:00:00.483Z,9.60
2018-05-19T04:02:35.869Z,9.60
2018-05-19T04:05:03.356Z,9.60
2018-05-19T04:07:31.628Z,9.60
2018-05-19T04:09:59.122Z,9.60
2018-05-19T04:12:26.611Z,9.60
2018-05-19T04:14:54.071Z,9.70
2018-05-19T04:17:21.561Z,9.70
2018-05-19T04:19:49.031Z,9.80
2018-05-19T04:22:17.280Z,9.80
2018-05-19T04:24:44.752Z,9.80
2018-05-19T04:27:12.236Z,9.80
2018-05-19T04:29:40.477Z,9.70
2018-05-19T04:32:07.974Z,9.70
2018-05-19T04:34:35.448Z,9.80
2018-05-19T04:37:02.971Z,9.80
2018-05-19T04:39:31.208Z,9.80
2018-05-19T04:41:58.692Z,9.70
2018-05-19T04:44:26.185Z,9.80
2018-05-19T04:46:53.664Z,9.90
2018-05-19T04:49:21.154Z,9.90
2018-05-19T04:51:48.626Z,9.90
2018-05-19T04:54:16.110Z,9.90
2018-05-19T04:56:44.354Z,10.00
2018-05-19T04:59:11.845Z,10.00
2018-05-19T05:01:40.096Z,10.20
2018-05-19T05:04:07.666Z,10.20
2018-05-19T05:06:35.104Z,10.20
2018-05-19T05:09:02.583Z,10.20
2018-05-19T05:11:30.833Z,10.40
2018-05-19T05:13:58.408Z,10.30
2018-05-19T05:16:26.567Z,10.40
2018-05-19T05:18:54.057Z,10.40
2018-05-19T05:21:22.289Z,10.50
2018-05-19T05:23:49.763Z,10.50
2018-05-19T05:26:17.243Z,10.60
2018-05-19T05:28:45.479Z,10.70
2018-05-19T05:31:12.968Z,10.70
2018-05-19T05:33:40.446Z,10.80
2018-05-19T05:36:08.723Z,10.90
2018-05-19T05:38:36.959Z,11.00
2018-05-19T05:41:04.524Z,11.00
2018-05-19T05:43:32.000Z,11.10
2018-05-19T05:45:59.488Z,11.10
2018-05-19T05:48:26.990Z,11.20
2018-05-19T05:50:54.548Z,11.20
2018-05-19T05:53:22.055Z,11.20
2018-05-19T05:55:50.308Z,11.20
2018-05-19T05:58:17.792Z,11.20
2018-05-19T06:00:46.092Z,11.40
2018-05-19T06:03:13.582Z,11.40
2018-05-19T06:05:41.075Z,11.40
2018-05-19T06:08:09.337Z,11.30
2018-05-19T06:10:36.833Z,11.30
2018-05-19T06:13:04.328Z,11.40
2018-05-19T06:15:31.803Z,11.60
2018-05-19T06:17:59.298Z,11.60
2018-05-19T06:20:27.536Z,11.70
2018-05-19T06:22:55.012Z,11.70
2018-05-19T06:25:22.484Z,11.60
2018-05-19T06:27:50.742Z,11.60
2018-05-19T06:30:18.218Z,11.60
2018-05-19T06:32:46.469Z,11.80
2018-05-19T06:35:13.936Z,11.80
2018-05-19T06:37:41.424Z,11.80
2018-05-19T06:40:08.912Z,11.80
2018-05-19T06:42:36.396Z,12.00
2018-05-19T06:45:03.880Z,12.00
2018-05-19T06:47:32.149Z,12.20
2018-05-19T06:49:59.616Z,12.20
2018-05-19T06:52:27.852Z,12.30
2018-05-19T06:54:55.342Z,12.30
2018-05-19T06:57:23.581Z,12.50
2018-05-19T06:59:51.280Z,12.50
2018-05-19T07:02:18.779Z,12.60
2018-05-19T07:04:46.276Z,12.70
2018-05-19T07:07:13.768Z,12.70
2018-05-19T07:09:42.044Z,12.80
2018-05-19T07:12:10.354Z,12.80
2018-05-19T07:14:37.864Z,12.80
2018-05-19T07:17:05.328Z,13.00
2018-05-19T07:19:33.585Z,13.00
2018-05-19T07:22:01.071Z,13.00
2018-05-19T07:24:29.333Z,13.40
2018-05-19T07:26:56.817Z,13.40
2018-05-19T07:29:25.100Z,13.60
2018-05-19T07:31:52.588Z,13.50
2018-05-19T07:34:20.082Z,13.50
2018-05-19T07:36:47.563Z,13.50
2018-05-19T07:39:15.799Z,13.60
2018-05-19T07:41:43.299Z,13.60
2018-05-19T07:44:11.536Z,13.70
2018-05-19T07:46:39.037Z,13.70
2018-05-19T07:49:07.267Z,13.80
2018-05-19T07:51:34.763Z,13.80
2018-05-19T07:54:03.005Z,13.80
2018-05-19T07:56:30.484Z,13.80
2018-05-19T07:58:58.716Z,13.90
2018-05-19T08:01:26.262Z,13.90
2018-05-19T08:03:53.743Z,14.10
2018-05-19T08:06:21.232Z,14.30
2018-05-19T08:08:48.716Z,14.40
2018-05-19T08:11:17.004Z,14.40
2018-05-19T08:13:44.535Z,14.40
2018-05-19T08:16:12.808Z,14.60
2018-05-19T08:18:41.067Z,14.70
2018-05-19T08:21:08.592Z,14.70
2018-05-19T08:23:36.076Z,14.70
2018-05-19T08:26:03.572Z,14.90
2018-05-19T08:28:31.838Z,15.00
2018-05-19T08:31:00.828Z,14.90
2018-05-19T08:33:29.111Z,14.90
2018-05-19T08:35:57.363Z,14.80
2018-05-19T08:38:24.867Z,14.80
2018-05-19T08:40:53.101Z,15.00
2018-05-19T08:43:20.617Z,14.90
2018-05-19T08:45:48.104Z,15.00
2018-05-19T08:48:15.602Z,15.20
2018-05-19T08:50:43.836Z,15.40
2018-05-19T08:53:11.308Z,15.40
2018-05-19T08:55:38.899Z,15.40
2018-05-19T08:58:07.253Z,15.00
2018-05-19T09:00:35.435Z,15.30
2018-05-19T09:03:04.414Z,15.30
2018-05-19T09:05:31.910Z,15.30
2018-05-19T09:08:00.167Z,15.00
2018-05-19T09:10:27.674Z,15.00
2018-05-19T09:12:55.261Z,14.90
2018-05-19T09:15:22.763Z,15.00
2018-05-19T09:17:51.009Z,14.80
2018-05-19T09:20:18.601Z,14.80
2018-05-19T09:22:46.860Z,14.90
2018-05-19T09:25:15.130Z,15.00
2018-05-19T09:27:42.610Z,15.00
2018-05-19T09:30:10.848Z,15.50
2018-05-19T09:32:38.376Z,15.50
2018-05-19T09:35:05.857Z,15.80
2018-05-19T09:37:33.397Z,16.00
2018-05-19T09:40:00.893Z,16.30
2018-05-19T09:42:28.376Z,16.40
2018-05-19T09:44:56.632Z,17.00
2018-05-19T09:47:24.247Z,16.90
2018-05-19T09:49:51.644Z,16.80
2018-05-19T09:52:19.158Z,17.00
2018-05-19T09:54:46.649Z,17.10
2018-05-19T09:57:14.137Z,17.00
2018-05-19T09:59:42.382Z,17.30
2018-05-19T10:02:09.868Z,17.30
2018-05-19T10:04:37.335Z,17.30
2018-05-19T10:07:05.596Z,17.50
2018-05-19T10:09:33.072Z,17.50
2018-05-19T10:12:01.329Z,17.70
2018-05-19T10:14:29.572Z,17.70
2018-05-19T10:16:57.061Z,17.70
2018-05-19T10:19:24.540Z,17.60
2018-05-19T10:21:52.784Z,17.10
2018-05-19T10:24:20.297Z,17.10
2018-05-19T10:26:47.768Z,17.10
2018-05-19T10:29:15.252Z,17.00
2018-05-19T10:31:42.747Z,17.00
2018-05-19T10:34:11.123Z,17.00
2018-05-19T10:36:38.541Z,17.00
2018-05-19T10:39:06.028Z,17.00
2018-05-19T10:41:33.522Z,17.30
2018-05-19T10:44:01.012Z,17.80
2018-05-19T10:46:28.515Z,17.90
2018-05-19T10:48:56.777Z,18.20
2018-05-19T10:51:24.273Z,18.10
2018-05-19T10:53:51.779Z,18.30
2018-05-19T10:56:19.329Z,18.40
2018-05-19T10:58:47.584Z,18.60
2018-05-19T11:01:15.065Z,18.60
2018-05-19T11:03:42.566Z,18.60
2018-05-19T11:06:10.800Z,18.50
2018-05-19T11:08:38.363Z,18.50
2018-05-19T11:11:05.852Z,18.40
2018-05-19T11:13:34.098Z,18.40
2018-05-19T11:16:01.601Z,18.30
2018-05-19T11:18:29.094Z,18.50
2018-05-19T11:20:56.591Z,18.20
2018-05-19T11:23:24.063Z,17.80
2018-05-19T11:25:51.574Z,17.80
2018-05-19T11:28:19.123Z,17.90
2018-05-19T11:30:47.404Z,18.10
2018-05-19T11:33:14.895Z,18.10
2018-05-19T11:35:42.376Z,18.00
2018-05-19T11:38:10.619Z,17.90
2018-05-19T11:40:38.108Z,17.90
2018-05-19T11:43:05.607Z,17.80
2018-05-19T11:45:33.132Z,17.80
2018-05-19T11:48:01.380Z,17.80
2018-05-19T11:50:28.874Z,17.80
2018-05-19T11:52:57.117Z,17.60
2018-05-19T11:55:24.612Z,17.60
2018-05-19T11:57:52.864Z,18.00
2018-05-19T12:00:20.371Z,18.00
2018-05-19T12:02:47.882Z,17.80
2018-05-19T12:05:15.348Z,18.10
2018-05-19T12:07:42.846Z,18.50
2018-05-19T12:10:10.314Z,18.50
2018-05-19T12:12:37.800Z,18.60
2018-05-19T12:15:05.280Z,18.50
2018-05-19T12:17:32.779Z,18.70
2018-05-19T12:20:00.260Z,19.00
2018-05-19T12:22:27.743Z,19.40
2018-05-19T12:24:55.236Z,19.50
2018-05-19T12:27:23.507Z,19.30
2018-05-19T12:29:51.770Z,19.20
2018-05-19T12:32:20.070Z,19.30
2018-05-19T12:34:48.484Z,19.20
2018-05-19T12:37:15.988Z,19.30
2018-05-19T12:39:44.272Z,20.30
2018-05-19T12:42:12.774Z,20.30
2018-05-19T12:44:40.248Z,20.30
2018-05-19T12:47:07.765Z,20.60
2018-05-19T12:49:36.052Z,20.60
2018-05-19T12:52:04.312Z,20.90
2018-05-19T12:54:31.800Z,20.80
2018-05-19T12:56:59.300Z,21.10
2018-05-19T12:59:26.792Z,20.80
2018-05-19T13:01:55.041Z,21.50
2018-05-19T13:04:22.525Z,21.50
2018-05-19T13:06:50.780Z,22.10
2018-05-19T13:09:18.267Z,22.10
2018-05-19T13:11:46.584Z,21.70
2018-05-19T13:14:14.072Z,21.70
2018-05-19T13:16:41.563Z,22.30
2018-05-19T13:19:09.829Z,21.70
2018-05-19T13:21:37.299Z,21.60
2018-05-19T13:24:05.549Z,21.80
2018-05-19T13:26:33.020Z,21.80
2018-05-19T13:29:00.528Z,21.70
2018-05-19T13:31:28.008Z,21.30
2018-05-19T13:33:55.482Z,21.70
2018-05-19T13:36:22.971Z,22.20
2018-05-19T13:38:51.220Z,23.30
2018-05-19T13:41:18.735Z,23.20
2018-05-19T13:43:46.185Z,24.10
2018-05-19T13:46:13.686Z,23.70
2018-05-19T13:48:41.168Z,23.80
2018-05-19T13:51:09.448Z,24.00
2018-05-19T13:53:37.715Z,23.90
2018-05-19T13:56:05.198Z,23.90
2018-05-19T13:58:33.464Z,24.30
2018-05-19T14:01:01.743Z,24.40
2018-05-19T14:03:29.979Z,24.20
2018-05-19T14:05:57.457Z,24.20
2018-05-19T14:08:24.946Z,24.50
2018-05-19T14:10:52.420Z,24.60
2018-05-19T14:13:19.911Z,25.00
2018-05-19T14:15:47.416Z,24.80
2018-05-19T14:18:15.667Z,23.40
2018-05-19T14:20:43.141Z,23.30
2018-05-19T14:23:11.395Z,22.50
2018-05-19T14:25:38.864Z,22.50
2018-05-19T14:28:06.351Z,21.80
2018-05-19T14:30:33.828Z,21.40
2018-05-19T14:33:01.332Z,21.20
2018-05-19T14:35:28.855Z,20.80
2018-05-19T14:37:56.323Z,20.50
2018-05-19T14:40:23.816Z,20.30
2018-05-19T14:42:52.055Z,19.90
2018-05-19T14:45:19.539Z,19.90
2018-05-19T14:47:47.018Z,19.90
2018-05-19T14:50:15.267Z,20.00
2018-05-19T14:52:42.752Z,19.90
2018-05-19T14:55:11.021Z,20.10
2018-05-19T14:57:39.257Z,20.20
2018-05-19T15:01:21.570Z,20.10
2018-05-19T15:03:49.063Z,20.00
2018-05-19T15:06:16.551Z,20.00
2018-05-19T15:08:44.790Z,19.80
2018-05-19T15:11:12.277Z,19.80
2018-05-19T15:13:40.515Z,19.60
2018-05-19T15:16:08.005Z,19.60
2018-05-19T15:18:36.289Z,19.60
2018-05-19T15:21:04.567Z,19.70
2018-05-19T15:23:32.051Z,19.60
2018-05-19T15:25:59.549Z,19.70
2018-05-19T15:28:27.011Z,19.80
2018-05-19T15:30:54.569Z,19.80
2018-05-19T15:33:22.062Z,19.60
2018-05-19T15:35:50.351Z,19.60
2018-05-19T15:38:17.835Z,19.50
2018-05-19T15:40:45.311Z,19.50
2018-05-19T15:43:12.804Z,19.60
2018-05-19T15:45:41.048Z,19.60
2018-05-19T15:48:08.626Z,19.60
2018-05-19T15:50:36.787Z,19.50
2018-05-19T15:53:04.263Z,19.40
2018-05-19T15:55:31.738Z,19.50
2018-05-19T15:57:59.283Z,19.60
2018-05-19T16:00:26.760Z,19.70
2018-05-19T16:02:55.068Z,19.60
2018-05-19T16:05:22.546Z,19.60
2018-05-19T16:07:50.032Z,19.60
2018-05-19T16:10:17.541Z,19.60
2018-05-19T16:12:45.066Z,19.50
2018-05-19T16:15:13.356Z,19.50
2018-05-19T16:17:41.591Z,19.50
2018-05-19T16:20:09.085Z,19.50
2018-05-19T16:22:37.331Z,19.30
2018-05-19T16:25:06.336Z,19.30
2018-05-19T16:27:33.807Z,19.30
2018-05-19T16:30:02.071Z,19.10
2018-05-19T16:32:29.547Z,19.10
2018-05-19T16:34:57.801Z,19.30
2018-05-19T16:37:25.277Z,19.30
2018-05-19T16:39:53.528Z,19.10
2018-05-19T16:42:21.817Z,19.20
2018-05-19T16:44:49.344Z,19.10
2018-05-19T16:47:16.855Z,19.20
2018-05-19T16:49:45.141Z,19.00
2018-05-19T16:52:12.634Z,18.90
2018-05-19T16:54:40.111Z,19.00
2018-05-19T16:57:07.602Z,19.00
2018-05-19T16:59:35.861Z,19.20
2018-05-19T17:02:03.352Z,19.20
2018-05-19T17:04:30.827Z,19.10
2018-05-19T17:06:58.316Z,19.20
2018-05-19T17:09:25.821Z,19.10
2018-05-19T17:11:54.054Z,19.00
2018-05-19T17:14:21.540Z,19.00
2018-05-19T17:16:49.784Z,19.00
2018-05-19T17:19:17.275Z,19.00
2018-05-19T17:21:45.554Z,18.90
2018-05-19T17:24:13.824Z,18.80
2018-05-19T17:26:42.072Z,18.70
2018-05-19T17:29:09.564Z,18.70
2018-05-19T17:31:37.848Z,18.50
2018-05-19T17:34:06.152Z,18.50
2018-05-19T17:36:33.628Z,18.50
2018-05-19T17:39:01.111Z,18.50
2018-05-19T17:41:28.590Z,18.60
2018-05-19T17:43:56.865Z,18.50
2018-05-19T17:46:25.104Z,18.40
2018-05-19T17:48:52.595Z,18.40
2018-05-19T17:51:20.080Z,18.20
2018-05-19T17:53:47.557Z,18.20
2018-05-19T17:56:15.046Z,18.20
2018-05-19T17:58:42.516Z,18.20
2018-05-19T18:01:10.000Z,18.10
2018-05-19T18:03:38.248Z,18.00
2018-05-19T18:06:05.753Z,17.90
2018-05-19T18:08:33.225Z,18.00
2018-05-19T18:11:00.709Z,17.90
2018-05-19T18:13:28.259Z,17.90
2018-05-19T18:15:56.450Z,17.90
2018-05-19T18:18:23.929Z,17.90
2018-05-19T18:20:52.171Z,17.80
2018-05-19T18:23:19.687Z,17.80
2018-05-19T18:25:47.929Z,17.60
2018-05-19T18:28:15.407Z,17.60
2018-05-19T18:30:43.660Z,17.60
2018-05-19T18:33:11.144Z,17.60
